Portada
METAR-TAF:

METAR-TAF

Aeroports :

Pattaya-Rayong, Tailàndia

latitud: 12-38N, longitud: 101-21E, altitud: 3 m

Observació

L'informe es va fer fa 26 minuts, a les 07:30 UTC
Vent 7 kt del Nord-Oest
Temperatura 29°C
Humitat 74%
Pressió 1006 hPa
Visibilitat: 6000 m
Escasses núvols a una alçada de 2000 ft
Cel ennuvolat a una alçada de 10000 ft

METAR: VTBU 280730Z 32007KT 6000 FEW020 BKN100 29/24 Q1006 NOSIG

Hora: 14:56 (07:56 UTC)

Pronòstic

L'informe es va fer fa 2 hores i 56 minuts, a les 05:00 UTC
Pronòstic vàlid del 28 a les 06 UTC al 29 a les 06 UTC
Vent 8 kt del Nord
Visibilitat: 6000 m
Escasses núvols a una alçada de 2000 ft
Núvols disperses a una alçada de 10000 ft
Evolucionant progressivament
l' 28 a les 16 UTC al 28 a les 18 UTC
Visibilitat: 4000 m
boirina
Evolucionant progressivament
l' 29 a les 02 UTC al 29 a les 04 UTC
Visibilitat: 7000 m

TAF: VTBU 280500Z 2806/2906 35008KT 6000 FEW020 SCT100 BECMG 2816/2818 4000 BR BECMG 2902/2904 7000 NSW

Observacions i pronòstics meteorològics de més de 4000 aeroports (METAR i TAF).

Les estacions disponibles són els punts grocs i vermells al mapa.

Posi el ratolí al punt desitjat per veure el nom de l'estació.

Feu clic per veure les observacions i els pronòstics meteorològics.

Per canviar el mapa: feu clic els botons verds amb una creu de color negre per apropar; al botó verd amb un guió per allunyar la imatge; o en les fletxes verdes per a mapes adjacents.


METAR-TAF: